Time;durP1;ratioP1;P1;durP2;ratioP2;P2;SDS_P1;SDS_P2;PMS_P1;PMS_P2;Temp;Humidity;BMP_temperature;BMP_pressure;BME280_temperature;BME280_humidity;BME280_pressure;Samples;Min_cycle;Max_cycle;Signal;HPM_P1;HPM_P2
2021/12/06 00:01:36;;;;;;;6.17;2.23;;;2.70;99.90;;;;;;4994061;28;20056;-84
2021/12/06 00:04:16;;;;;;;4.70;2.13;;;2.70;99.90;;;;;;5001430;28;20014;-85
2021/12/06 00:06:45;;;;;;;3.50;1.50;;;2.70;99.90;;;;;;5013032;28;20116;-83
2021/12/06 00:09:15;;;;;;;3.90;1.60;;;2.70;99.90;;;;;;5001022;28;20083;-84
2021/12/06 00:11:40;;;;;;;5.37;1.80;;;2.70;99.90;;;;;;5015906;28;20076;-84
2021/12/06 00:14:06;;;;;;;3.80;1.43;;;2.70;99.90;;;;;;5016074;28;20022;-84
2021/12/06 00:16:32;;;;;;;4.23;1.90;;;2.60;99.90;;;;;;4995806;28;20021;-84
2021/12/06 00:18:58;;;;;;;3.27;1.60;;;2.70;99.90;;;;;;5015637;28;20033;-84
2021/12/06 00:21:25;;;;;;;5.93;1.63;;;2.70;99.90;;;;;;5012532;28;20045;-84
2021/12/06 00:23:52;;;;;;;4.83;1.70;;;2.70;99.90;;;;;;5015099;28;20014;-84
2021/12/06 00:26:17;;;;;;;6.63;1.83;;;2.70;99.90;;;;;;4999478;28;20107;-85
2021/12/06 00:28:45;;;;;;;5.63;1.90;;;2.70;99.90;;;;;;4997760;28;20569;-84
2021/12/06 00:31:12;;;;;;;6.40;2.13;;;2.70;99.90;;;;;;4998909;28;20449;-85
2021/12/06 00:33:38;;;;;;;7.83;2.07;;;2.70;99.90;;;;;;4997374;28;20140;-84
2021/12/06 00:36:07;;;;;;;3.30;1.77;;;2.70;99.90;;;;;;5017362;28;20076;-84
2021/12/06 00:38:34;;;;;;;3.70;1.90;;;2.70;99.90;;;;;;5010076;28;20033;-85
2021/12/06 00:41:02;;;;;;;5.53;2.20;;;2.70;99.90;;;;;;5010074;28;20034;-84
2021/12/06 00:43:28;;;;;;;4.23;2.07;;;2.70;99.90;;;;;;5014989;28;20029;-84
2021/12/06 00:45:53;;;;;;;4.60;2.03;;;2.70;99.90;;;;;;4996719;28;20064;-85
2021/12/06 00:48:19;;;;;;;4.80;2.03;;;2.60;99.90;;;;;;4997776;28;20112;-85
2021/12/06 00:50:45;;;;;;;5.63;2.57;;;2.60;99.90;;;;;;4996404;28;20033;-84
2021/12/06 00:53:11;;;;;;;6.53;2.40;;;2.60;99.90;;;;;;4998482;28;20072;-84
2021/12/06 00:55:37;;;;;;;5.67;2.23;;;2.70;99.90;;;;;;4996524;28;20049;-84
2021/12/06 00:58:03;;;;;;;6.83;2.03;;;2.60;99.90;;;;;;5013450;28;20033;-85
2021/12/06 01:00:51;;;;;;;5.00;2.10;;;2.70;99.90;;;;;;4996805;28;20490;-85
2021/12/06 01:03:23;;;;;;;8.43;2.27;;;2.60;99.90;;;;;;4994360;28;20768;-85
2021/12/06 01:05:49;;;;;;;5.10;2.20;;;2.60;99.90;;;;;;4995740;28;20029;-84
2021/12/06 01:08:16;;;;;;;6.90;2.43;;;2.70;99.90;;;;;;5011974;28;20029;-84
2021/12/06 01:10:42;;;;;;;5.90;2.40;;;2.70;99.90;;;;;;4996426;28;20026;-84
2021/12/06 01:13:08;;;;;;;6.67;2.60;;;2.70;99.90;;;;;;5013311;28;20045;-84
2021/12/06 01:15:36;;;;;;;4.10;2.17;;;2.70;99.90;;;;;;5014073;28;20030;-84
2021/12/06 01:18:02;;;;;;;4.60;2.03;;;2.70;99.90;;;;;;4998068;28;20088;-84
2021/12/06 01:20:31;;;;;;;7.07;2.20;;;2.70;99.90;;;;;;4996678;28;20494;-84
2021/12/06 01:23:02;;;;;;;6.27;2.47;;;2.70;99.90;;;;;;4994419;28;20030;-84
2021/12/06 01:41:25;;;;;;;6.70;2.67;;;2.70;99.90;;;;;;4978655;28;1058842;-84
2021/12/06 01:44:19;;;;;;;5.57;2.53;;;2.70;99.90;;;;;;5000773;28;20041;-84
2021/12/06 01:46:49;;;;;;;5.17;2.47;;;2.70;99.90;;;;;;5000888;28;20030;-84
2021/12/06 01:49:16;;;;;;;7.33;2.37;;;2.70;99.90;;;;;;4999986;28;20033;-85
2021/12/06 01:51:43;;;;;;;6.60;2.63;;;2.70;99.90;;;;;;5000152;28;20114;-84
2021/12/06 01:54:10;;;;;;;5.27;2.77;;;2.70;99.90;;;;;;5003493;28;20025;-84
2021/12/06 01:56:36;;;;;;;5.13;2.30;;;2.70;99.90;;;;;;5000744;28;20026;-84
2021/12/06 01:59:03;;;;;;;5.60;2.60;;;2.70;99.90;;;;;;5001675;28;20038;-85
2021/12/06 02:01:29;;;;;;;5.13;2.50;;;2.70;99.90;;;;;;5021147;28;20057;-84
2021/12/06 02:03:56;;;;;;;4.07;2.23;;;2.70;99.90;;;;;;5023349;28;20029;-84
2021/12/06 02:06:21;;;;;;;7.27;2.67;;;2.70;99.90;;;;;;5023910;28;20029;-84
2021/12/06 02:08:47;;;;;;;6.13;2.30;;;2.70;99.90;;;;;;5019146;28;20112;-84
2021/12/06 02:11:13;;;;;;;5.30;2.60;;;2.70;99.90;;;;;;5024487;28;20022;-84
2021/12/06 02:13:50;;;;;;;5.67;2.57;;;2.70;99.90;;;;;;5022687;28;20022;-84
2021/12/06 02:16:19;;;;;;;5.07;2.20;;;2.60;99.90;;;;;;5001239;28;20044;-84
2021/12/06 02:18:50;;;;;;;5.73;2.40;;;2.60;99.90;;;;;;5004800;28;20082;-84
2021/12/06 02:21:23;;;;;;;6.47;2.63;;;2.60;99.90;;;;;;5019146;28;20018;-84
2021/12/06 02:23:49;;;;;;;10.63;3.30;;;2.60;99.90;;;;;;5004410;28;20030;-84
2021/12/06 02:26:17;;;;;;;5.30;2.77;;;2.60;99.90;;;;;;5004738;28;20044;-85
2021/12/06 02:28:43;;;;;;;5.67;2.97;;;2.50;99.90;;;;;;5003337;28;20026;-84
2021/12/06 02:31:09;;;;;;;7.10;2.87;;;2.60;99.90;;;;;;5003589;28;20053;-84
2021/12/06 02:33:35;;;;;;;6.40;2.43;;;2.50;99.90;;;;;;5011855;28;20252;-84
2021/12/06 02:36:01;;;;;;;6.93;2.60;;;2.50;99.90;;;;;;5001594;28;20026;-84
2021/12/06 02:38:27;;;;;;;7.80;3.50;;;2.50;99.90;;;;;;5018961;28;20108;-84
2021/12/06 02:40:52;;;;;;;6.23;2.93;;;2.50;99.90;;;;;;5000621;28;20125;-84
2021/12/06 02:43:18;;;;;;;6.27;2.43;;;2.50;99.90;;;;;;5000011;28;20112;-84
2021/12/06 02:45:44;;;;;;;4.90;2.50;;;2.50;99.90;;;;;;5000469;28;20049;-84
2021/12/06 02:48:12;;;;;;;6.13;3.03;;;2.50;99.90;;;;;;5002505;28;20030;-84
2021/12/06 02:50:43;;;;;;;7.20;2.83;;;2.50;99.90;;;;;;4999966;28;20118;-84
2021/12/06 02:53:09;;;;;;;7.40;3.23;;;2.50;99.90;;;;;;5001226;28;20066;-84
2021/12/06 02:55:36;;;;;;;7.60;3.30;;;2.50;99.90;;;;;;5018379;28;20022;-84
2021/12/06 02:58:20;;;;;;;6.30;2.93;;;2.50;99.90;;;;;;5002431;28;20510;-84
2021/12/06 03:00:52;;;;;;;6.93;3.23;;;2.50;99.90;;;;;;4997132;28;20030;-84
2021/12/06 03:03:18;;;;;;;7.45;3.42;;;2.50;99.90;;;;;;4997803;28;20362;-84
2021/12/06 03:05:45;;;;;;;7.97;3.77;;;2.50;99.90;;;;;;5000184;28;20121;-84
2021/12/06 03:08:12;;;;;;;7.30;3.33;;;2.60;99.90;;;;;;4999523;28;20029;-84
2021/12/06 03:10:38;;;;;;;7.80;3.50;;;2.60;99.90;;;;;;5015826;28;20032;-84
2021/12/06 03:13:05;;;;;;;8.20;3.00;;;2.60;99.90;;;;;;5001431;28;20026;-84
2021/12/06 03:15:31;;;;;;;8.37;3.40;;;2.60;99.90;;;;;;4997656;28;20029;-84
2021/12/06 03:17:57;;;;;;;8.60;4.17;;;2.60;99.90;;;;;;4998872;28;20051;-84
2021/12/06 03:20:23;;;;;;;6.57;3.30;;;2.60;99.90;;;;;;5018337;28;20037;-84
2021/12/06 03:22:49;;;;;;;7.80;3.07;;;2.60;99.90;;;;;;5016750;28;20420;-85
2021/12/06 03:25:17;;;;;;;5.87;3.00;;;2.50;99.90;;;;;;5000866;28;20022;-84
2021/12/06 03:27:43;;;;;;;7.70;3.17;;;2.50;99.90;;;;;;4999483;28;20022;-84
2021/12/06 03:30:11;;;;;;;6.83;3.57;;;2.50;99.90;;;;;;5001772;28;20037;-85
2021/12/06 03:32:37;;;;;;;7.83;3.60;;;2.50;99.90;;;;;;5016769;28;20018;-85
2021/12/06 03:35:03;;;;;;;8.37;3.13;;;2.50;99.90;;;;;;4997448;28;20482;-84
2021/12/06 03:37:29;;;;;;;8.93;3.47;;;2.50;99.90;;;;;;4999710;28;20042;-84
2021/12/06 03:39:55;;;;;;;8.83;4.13;;;2.40;99.90;;;;;;5014843;28;20438;-84
2021/12/06 03:42:22;;;;;;;8.90;4.23;;;2.40;99.90;;;;;;5000329;28;20026;-84
2021/12/06 03:44:49;;;;;;;9.23;4.40;;;2.40;99.90;;;;;;5010597;28;20026;-84
2021/12/06 03:47:22;;;;;;;9.17;4.60;;;2.40;99.90;;;;;;4996057;28;20617;-84
2021/12/06 03:49:48;;;;;;;7.50;4.37;;;2.40;99.90;;;;;;5016173;28;20028;-84
2021/12/06 03:52:15;;;;;;;9.83;4.40;;;2.40;99.90;;;;;;4997664;28;20049;-84
2021/12/06 03:54:42;;;;;;;11.50;4.90;;;2.40;99.90;;;;;;4998055;28;20132;-84
2021/12/06 03:57:08;;;;;;;8.83;4.43;;;2.40;99.90;;;;;;5018255;28;20018;-84
2021/12/06 03:59:34;;;;;;;10.17;4.90;;;2.30;99.90;;;;;;5016087;28;20052;-84
2021/12/06 04:02:01;;;;;;;9.80;4.90;;;2.40;99.90;;;;;;4998115;28;20037;-84
2021/12/06 04:04:27;;;;;;;13.83;5.07;;;2.40;99.90;;;;;;4997890;28;20018;-84
2021/12/06 04:06:53;;;;;;;8.50;4.70;;;2.40;99.90;;;;;;4998269;28;20018;-84
2021/12/06 04:09:20;;;;;;;8.93;5.33;;;2.30;99.90;;;;;;4988627;28;20030;-84
2021/12/06 04:11:46;;;;;;;10.37;5.40;;;2.40;99.90;;;;;;5014466;28;20053;-85
2021/12/06 04:14:13;;;;;;;10.57;5.50;;;2.30;99.90;;;;;;4999635;28;20017;-84
2021/12/06 04:16:39;;;;;;;9.77;5.40;;;2.40;99.90;;;;;;4995148;28;20037;-84
2021/12/06 04:19:06;;;;;;;9.97;6.00;;;2.40;99.90;;;;;;5000836;28;20030;-85
2021/12/06 04:21:33;;;;;;;11.97;5.90;;;2.40;99.90;;;;;;4997420;28;20018;-84
2021/12/06 04:23:58;;;;;;;12.77;7.07;;;2.40;99.90;;;;;;5019836;28;20029;-84
2021/12/06 04:26:24;;;;;;;11.97;6.30;;;2.40;99.90;;;;;;5000860;28;20025;-85
2021/12/06 04:28:58;;;;;;;14.60;6.73;;;2.40;99.90;;;;;;5021372;28;20064;-84
2021/12/06 04:31:29;;;;;;;13.23;6.57;;;2.30;99.90;;;;;;5002827;28;20162;-83
2021/12/06 04:33:55;;;;;;;12.43;6.67;;;2.30;99.90;;;;;;5004208;28;20105;-83
2021/12/06 04:36:21;;;;;;;12.53;6.43;;;2.30;99.90;;;;;;4999512;28;20057;-83
2021/12/06 04:38:47;;;;;;;12.93;7.43;;;2.30;99.90;;;;;;5017682;28;20014;-83
2021/12/06 04:41:12;;;;;;;12.80;6.70;;;2.30;99.90;;;;;;5019187;28;20022;-84
2021/12/06 04:43:38;;;;;;;13.87;7.20;;;2.30;99.90;;;;;;5019280;28;20112;-83
2021/12/06 04:46:03;;;;;;;14.23;6.70;;;2.30;99.90;;;;;;5003042;28;20108;-83
2021/12/06 04:48:29;;;;;;;14.47;7.83;;;2.30;99.90;;;;;;4999998;28;20033;-83
2021/12/06 04:50:54;;;;;;;18.63;8.33;;;2.30;99.90;;;;;;4999970;28;20106;-85
2021/12/06 04:53:24;;;;;;;16.17;7.70;;;2.30;99.90;;;;;;5016546;28;20069;-83
2021/12/06 04:55:55;;;;;;;17.17;8.50;;;2.30;99.90;;;;;;4999367;28;20026;-83
2021/12/06 04:58:26;;;;;;;17.30;8.07;;;2.30;99.90;;;;;;4997446;28;20034;-83
2021/12/06 05:01:04;;;;;;;16.73;8.02;;;2.30;99.90;;;;;;5018922;28;20030;-83
2021/12/06 05:03:30;;;;;;;17.37;7.57;;;2.30;99.90;;;;;;5009670;28;20038;-83
2021/12/06 05:06:01;;;;;;;17.77;8.27;;;2.40;99.90;;;;;;5028086;28;20033;-84
2021/12/06 05:08:31;;;;;;;17.63;8.87;;;2.30;99.90;;;;;;5034729;28;20098;-83
2021/12/06 05:11:00;;;;;;;17.13;9.03;;;2.30;99.90;;;;;;5033076;28;20184;-83
2021/12/06 05:13:27;;;;;;;16.83;8.07;;;2.40;99.90;;;;;;5016462;28;20039;-83
2021/12/06 05:15:53;;;;;;;22.67;10.20;;;2.30;99.90;;;;;;5014652;28;20498;-83
2021/12/06 05:18:19;;;;;;;18.23;8.30;;;2.30;99.90;;;;;;5019891;28;20045;-83
2021/12/06 05:20:46;;;;;;;18.03;8.93;;;2.30;99.90;;;;;;5036304;28;20024;-83
2021/12/06 05:23:11;;;;;;;16.67;8.87;;;2.40;99.90;;;;;;5038013;28;20071;-83
2021/12/06 05:25:38;;;;;;;17.30;8.33;;;2.30;99.90;;;;;;5015171;28;20030;-83
2021/12/06 05:28:05;;;;;;;17.83;8.97;;;2.30;99.90;;;;;;5005157;28;20041;-83
2021/12/06 05:30:32;;;;;;;27.00;9.17;;;2.30;99.90;;;;;;5033707;28;20030;-83
2021/12/06 05:32:59;;;;;;;19.43;9.13;;;2.30;99.90;;;;;;5009955;28;20037;-83
2021/12/06 05:35:25;;;;;;;18.87;8.90;;;2.30;99.90;;;;;;5025182;28;20025;-82
2021/12/06 05:37:54;;;;;;;21.30;9.90;;;2.40;99.90;;;;;;5027916;28;20022;-82
2021/12/06 05:40:34;;;;;;;21.60;8.70;;;2.50;99.90;;;;;;5013331;23;20070;-83
2021/12/06 05:43:02;;;;;;;18.50;9.07;;;2.50;99.90;;;;;;4960628;28;20027;-83
2021/12/06 05:45:30;;;;;;;18.83;8.83;;;2.50;99.90;;;;;;4961896;28;20026;-82
2021/12/06 05:47:56;;;;;;;17.47;8.57;;;2.50;99.90;;;;;;4979267;28;20030;-82
2021/12/06 05:50:23;;;;;;;18.83;9.50;;;2.40;99.90;;;;;;4977655;28;20031;-85
2021/12/06 05:52:52;;;;;;;18.50;9.43;;;2.40;99.90;;;;;;4978718;28;20043;-84
2021/12/06 05:55:19;;;;;;;20.97;9.70;;;2.40;99.90;;;;;;4975841;28;20055;-85
2021/12/06 05:57:45;;;;;;;21.83;9.97;;;2.40;99.90;;;;;;4979441;28;20453;-85
2021/12/06 06:00:15;;;;;;;21.43;9.57;;;2.50;99.90;;;;;;4973818;28;20039;-85
2021/12/06 06:02:41;;;;;;;22.27;9.20;;;2.50;99.90;;;;;;4977624;28;20030;-85
2021/12/06 06:05:08;;;;;;;18.83;9.47;;;2.40;99.90;;;;;;4976567;28;20027;-85
2021/12/06 06:07:33;;;;;;;19.33;8.77;;;2.50;99.90;;;;;;4974552;28;20031;-85
2021/12/06 06:09:59;;;;;;;19.37;9.30;;;2.40;99.90;;;;;;4971323;28;20388;-85
2021/12/06 06:12:25;;;;;;;21.03;9.60;;;2.40;99.90;;;;;;4973241;28;20042;-85
2021/12/06 06:14:50;;;;;;;16.60;7.87;;;2.40;99.90;;;;;;4976609;28;20050;-84
2021/12/06 06:17:19;;;;;;;18.00;7.40;;;2.50;99.90;;;;;;4977564;28;20054;-85
2021/12/06 06:19:52;;;;;;;16.93;7.63;;;2.50;99.90;;;;;;4977075;28;20023;-85
2021/12/06 06:22:18;;;;;;;16.20;7.50;;;2.40;99.90;;;;;;4975265;28;20058;-85
2021/12/06 06:24:44;;;;;;;17.10;7.80;;;2.40;99.90;;;;;;4978254;28;20066;-85
2021/12/06 06:27:10;;;;;;;18.97;8.23;;;2.40;99.90;;;;;;4970433;28;20195;-85
2021/12/06 06:29:36;;;;;;;20.17;7.80;;;2.40;99.90;;;;;;4972779;28;20117;-84
2021/12/06 06:32:04;;;;;;;15.53;7.87;;;2.40;99.90;;;;;;4976242;28;20491;-85
2021/12/06 06:34:30;;;;;;;19.10;7.50;;;2.40;99.90;;;;;;4969059;28;20039;-85
2021/12/06 06:36:57;;;;;;;15.53;7.00;;;2.40;99.90;;;;;;4975176;28;20041;-85
2021/12/06 06:39:22;;;;;;;17.20;7.73;;;2.30;99.90;;;;;;4975579;28;20035;-84
2021/12/06 06:41:50;;;;;;;17.87;7.73;;;2.30;99.90;;;;;;4970146;28;20037;-84
2021/12/06 06:44:17;;;;;;;16.53;7.03;;;2.30;99.90;;;;;;4960509;28;20033;-85
2021/12/06 06:46:45;;;;;;;17.13;7.47;;;2.30;99.90;;;;;;4968467;28;20086;-84
2021/12/06 06:49:11;;;;;;;17.53;8.03;;;2.40;99.90;;;;;;4975432;28;20877;-84
2021/12/06 06:51:37;;;;;;;15.93;7.30;;;2.40;99.90;;;;;;4974541;28;20399;-85
2021/12/06 06:54:03;;;;;;;16.20;7.63;;;2.40;99.90;;;;;;4974172;28;20026;-84
2021/12/06 06:56:29;;;;;;;15.37;7.60;;;2.40;99.90;;;;;;4978405;28;20138;-85
2021/12/06 06:58:55;;;;;;;17.17;6.70;;;2.50;99.90;;;;;;4975581;28;20488;-85
2021/12/06 07:01:21;;;;;;;16.10;7.27;;;2.40;99.90;;;;;;4970985;28;20034;-85
2021/12/06 07:03:53;;;;;;;17.27;7.80;;;2.40;99.90;;;;;;4979897;28;20434;-84
2021/12/06 07:06:21;;;;;;;17.15;7.25;;;2.50;99.90;;;;;;4978350;28;20057;-85
2021/12/06 07:08:47;;;;;;;16.17;7.30;;;2.50;99.90;;;;;;4972713;28;20134;-84
2021/12/06 07:11:12;;;;;;;18.13;7.00;;;2.50;99.90;;;;;;4978625;28;20054;-84
2021/12/06 07:13:39;;;;;;;13.60;6.23;;;2.50;99.90;;;;;;4971626;28;20023;-84
2021/12/06 07:16:06;;;;;;;17.13;7.57;;;2.50;99.90;;;;;;4976397;28;20053;-84
2021/12/06 07:18:32;;;;;;;15.90;7.37;;;2.50;99.90;;;;;;4976355;28;20031;-85
2021/12/06 07:20:58;;;;;;;16.63;7.47;;;2.50;99.90;;;;;;4970105;28;20031;-84
2021/12/06 07:23:23;;;;;;;14.63;7.30;;;2.50;99.90;;;;;;4973062;28;20023;-84
2021/12/06 07:25:49;;;;;;;16.60;7.53;;;2.50;99.90;;;;;;4956414;28;20030;-84
2021/12/06 07:28:15;;;;;;;15.73;7.00;;;2.50;99.90;;;;;;4959147;28;20627;-84
2021/12/06 07:30:41;;;;;;;13.73;7.27;;;2.50;99.90;;;;;;4956630;28;20805;-84
2021/12/06 07:33:07;;;;;;;17.67;7.60;;;2.50;99.90;;;;;;4955877;29;20037;-84
2021/12/06 07:35:33;;;;;;;16.23;7.53;;;2.50;99.90;;;;;;4956133;28;20118;-84
2021/12/06 07:38:02;;;;;;;16.57;7.73;;;2.50;99.90;;;;;;4973845;28;20106;-84
2021/12/06 07:40:28;;;;;;;15.10;6.83;;;2.50;99.90;;;;;;4974754;28;20035;-84
2021/12/06 07:42:53;;;;;;;17.33;7.87;;;2.50;99.90;;;;;;4974376;28;20030;-84
2021/12/06 07:45:20;;;;;;;17.77;7.90;;;2.50;99.90;;;;;;4971190;28;20389;-84
2021/12/06 07:47:47;;;;;;;16.80;7.33;;;2.60;99.90;;;;;;4968219;28;20027;-85
2021/12/06 07:50:15;;;;;;;16.57;7.30;;;2.50;99.90;;;;;;4969164;28;20134;-84
2021/12/06 07:52:41;;;;;;;15.53;6.93;;;2.60;99.90;;;;;;4992762;28;20042;-85
2021/12/06 07:55:11;;;;;;;15.87;7.43;;;2.60;99.90;;;;;;4984997;28;20038;-85
2021/12/06 07:57:37;;;;;;;17.17;7.70;;;2.60;99.90;;;;;;4984660;28;20447;-85
2021/12/06 08:00:10;;;;;;;18.60;7.90;;;2.60;99.90;;;;;;4975334;28;20030;-84
2021/12/06 08:02:36;;;;;;;15.13;7.00;;;2.50;99.90;;;;;;4970726;28;20031;-88
2021/12/06 08:07:47;;;;;;;18.27;7.70;;;2.50;99.90;;;;;;4966641;28;20049;-87
2021/12/06 08:10:13;;;;;;;17.70;7.37;;;2.50;99.90;;;;;;4967013;28;20049;-86
2021/12/06 08:12:39;;;;;;;18.33;7.73;;;2.50;99.90;;;;;;4970443;28;20031;-87
2021/12/06 08:15:05;;;;;;;18.83;7.93;;;2.50;99.90;;;;;;4969629;28;20479;-87
2021/12/06 08:17:31;;;;;;;12.97;6.37;;;2.50;99.90;;;;;;4959939;28;20042;-87
2021/12/06 08:19:57;;;;;;;15.37;7.07;;;2.50;99.90;;;;;;4953721;29;20400;-87
2021/12/06 08:22:22;;;;;;;19.57;7.77;;;2.50;99.90;;;;;;4952025;29;20492;-87
2021/12/06 08:24:48;;;;;;;15.93;7.73;;;2.50;99.90;;;;;;4967103;28;20608;-88
2021/12/06 08:27:14;;;;;;;17.13;8.07;;;2.50;99.90;;;;;;4965439;28;20480;-88
2021/12/06 08:29:39;;;;;;;16.43;7.17;;;2.50;99.90;;;;;;4971934;28;20027;-88
2021/12/06 08:32:07;;;;;;;17.30;7.53;;;2.60;99.90;;;;;;4972578;28;20091;-86
2021/12/06 08:34:33;;;;;;;17.20;7.60;;;2.60;99.90;;;;;;4969248;28;20113;-85
2021/12/06 08:37:00;;;;;;;15.33;7.47;;;2.60;99.90;;;;;;4968455;28;20523;-87
2021/12/06 08:39:26;;;;;;;16.47;7.83;;;2.70;99.90;;;;;;4962966;28;20502;-87
2021/12/06 08:41:52;;;;;;;16.83;7.77;;;2.70;99.90;;;;;;4970807;28;20034;-87
2021/12/06 08:44:17;;;;;;;17.20;7.10;;;2.80;99.90;;;;;;4967787;28;20028;-87
2021/12/06 08:46:43;;;;;;;23.17;8.17;;;2.80;99.90;;;;;;4953347;29;20031;-87
2021/12/06 08:49:10;;;;;;;16.33;7.23;;;2.80;99.90;;;;;;4958543;28;20034;-87
2021/12/06 08:51:44;;;;;;;15.47;6.60;;;2.90;99.90;;;;;;4969736;28;20105;-87
2021/12/06 08:54:12;;;;;;;15.23;6.20;;;3.00;99.90;;;;;;4971223;28;20057;-88
2021/12/06 08:56:39;;;;;;;14.03;6.93;;;2.90;99.90;;;;;;4966089;28;20452;-87
2021/12/06 08:59:06;;;;;;;16.53;6.77;;;2.90;99.90;;;;;;4971423;28;20740;-87
2021/12/06 09:01:34;;;;;;;15.20;6.30;;;3.00;99.90;;;;;;4969449;28;20558;-87
2021/12/06 09:04:00;;;;;;;15.90;6.20;;;3.00;99.90;;;;;;4963093;28;20066;-85
2021/12/06 09:06:27;;;;;;;14.87;6.87;;;3.10;99.90;;;;;;4970936;28;20019;-87
2021/12/06 09:08:54;;;;;;;15.27;6.60;;;3.10;99.90;;;;;;4967491;28;20032;-87
2021/12/06 09:11:21;;;;;;;16.27;6.63;;;3.10;99.90;;;;;;4953593;28;20114;-86
2021/12/06 09:13:46;;;;;;;16.10;6.70;;;3.20;99.90;;;;;;4963191;28;20028;-87
2021/12/06 09:16:13;;;;;;;13.33;5.87;;;3.20;99.90;;;;;;4964929;28;20089;-87
2021/12/06 09:18:41;;;;;;;12.80;5.87;;;3.20;99.90;;;;;;4971735;28;20101;-87
2021/12/06 09:21:10;;;;;;;12.83;5.30;;;3.20;99.90;;;;;;4962117;28;20114;-87
2021/12/06 09:23:36;;;;;;;10.27;5.07;;;3.30;99.90;;;;;;4967697;28;20015;-87
2021/12/06 09:26:03;;;;;;;10.47;5.17;;;3.20;99.90;;;;;;4953079;28;20034;-87
2021/12/06 09:28:29;;;;;;;15.70;5.73;;;3.30;99.90;;;;;;4953117;28;20026;-87
2021/12/06 09:30:55;;;;;;;12.63;5.40;;;3.30;99.90;;;;;;4951450;29;20035;-88
2021/12/06 09:33:22;;;;;;;10.73;4.70;;;3.30;99.90;;;;;;4951170;28;20031;-88
2021/12/06 09:35:50;;;;;;;10.77;4.70;;;3.40;99.90;;;;;;4957903;28;20101;-88
2021/12/06 09:38:22;;;;;;;11.03;4.87;;;3.40;99.90;;;;;;4963403;28;20027;-86
2021/12/06 09:40:51;;;;;;;10.70;4.60;;;3.40;99.90;;;;;;4970907;28;20066;-87
2021/12/06 09:43:18;;;;;;;12.17;5.07;;;3.50;99.90;;;;;;4965227;28;20030;-86
2021/12/06 09:45:45;;;;;;;9.47;4.50;;;3.60;99.90;;;;;;4970496;28;20034;-86
2021/12/06 09:48:12;;;;;;;11.63;4.83;;;3.60;99.90;;;;;;4963472;28;20030;-86
2021/12/06 09:50:44;;;;;;;8.00;3.60;;;3.70;99.90;;;;;;4970479;28;20023;-86
2021/12/06 09:53:12;;;;;;;8.00;3.70;;;3.70;99.90;;;;;;4960565;28;20034;-87
2021/12/06 09:55:40;;;;;;;9.90;4.40;;;3.70;99.90;;;;;;4971055;28;20104;-86
2021/12/06 09:58:06;;;;;;;12.07;4.10;;;3.70;99.90;;;;;;4971535;28;20503;-86
2021/12/06 10:00:37;;;;;;;8.93;4.23;;;3.80;99.90;;;;;;4970114;28;20035;-87
2021/12/06 10:03:03;;;;;;;6.33;3.00;;;3.90;99.90;;;;;;4973902;28;20026;-86
2021/12/06 10:05:31;;;;;;;6.60;3.30;;;4.00;99.90;;;;;;4974217;28;20711;-87
2021/12/06 10:07:59;;;;;;;7.27;3.23;;;4.00;99.90;;;;;;4971496;28;20026;-86
2021/12/06 10:10:27;;;;;;;8.47;3.67;;;4.10;99.90;;;;;;4967224;28;20031;-87
2021/12/06 10:12:54;;;;;;;7.17;3.50;;;4.10;99.90;;;;;;4969396;28;20035;-87
2021/12/06 10:15:22;;;;;;;7.93;3.07;;;4.10;99.90;;;;;;4967161;28;20027;-86
2021/12/06 10:17:48;;;;;;;8.30;3.70;;;4.10;99.90;;;;;;4966553;28;20082;-87
2021/12/06 10:20:15;;;;;;;9.27;4.47;;;4.00;99.90;;;;;;4954581;29;20043;-87
2021/12/06 10:22:41;;;;;;;9.83;4.17;;;4.00;99.90;;;;;;4954187;29;20023;-86
2021/12/06 10:25:07;;;;;;;8.73;4.00;;;3.90;99.90;;;;;;4966022;28;20547;-86
2021/12/06 10:27:33;;;;;;;8.37;4.33;;;3.90;99.90;;;;;;4954265;29;20412;-87
2021/12/06 10:30:04;;;;;;;9.30;3.50;;;3.80;99.90;;;;;;4955366;28;20035;-86
2021/12/06 10:32:33;;;;;;;10.23;4.17;;;3.80;99.90;;;;;;4955226;28;20050;-86
2021/12/06 10:35:13;;;;;;;9.63;4.40;;;3.90;99.90;;;;;;4961415;28;20038;-86
2021/12/06 10:37:54;;;;;;;9.93;4.50;;;3.90;99.90;;;;;;4974330;28;20041;-85
2021/12/06 10:40:25;;;;;;;8.07;3.43;;;3.90;99.90;;;;;;4973132;28;20043;-87
2021/12/06 10:42:52;;;;;;;9.35;4.00;;;3.90;99.90;;;;;;4966007;28;20373;-86
2021/12/06 10:45:26;;;;;;;9.70;4.73;;;3.90;99.90;;;;;;4973992;28;20451;-86
2021/12/06 10:48:11;;;;;;;8.60;3.80;;;3.90;99.90;;;;;;4956481;28;20082;-85
2021/12/06 10:50:41;;;;;;;11.27;4.47;;;4.00;99.90;;;;;;4964522;28;20035;-86
2021/12/06 10:53:08;;;;;;;8.57;3.70;;;4.00;99.90;;;;;;4972418;28;20033;-86
2021/12/06 10:55:35;;;;;;;9.47;4.33;;;4.10;99.90;;;;;;4971212;28;20038;-86
2021/12/06 10:58:06;;;;;;;6.60;3.00;;;4.10;99.90;;;;;;4972635;28;20035;-86
2021/12/06 11:00:50;;;;;;;4.97;2.35;;;4.20;99.90;;;;;;4955181;28;20090;-86
2021/12/06 11:03:21;;;;;;;6.43;2.70;;;4.20;99.90;;;;;;4951819;28;20027;-85
2021/12/06 11:05:54;;;;;;;7.45;3.15;;;4.20;99.90;;;;;;4953058;29;20126;-85
2021/12/06 11:08:19;;;;;;;;;;;4.20;99.90;;;;;;4961402;28;20031;-84
2021/12/06 11:10:55;;;;;;;7.47;2.93;;;4.30;99.90;;;;;;4961197;28;19980;-85
2021/12/06 11:13:29;;;;;;;8.97;3.03;;;4.30;99.90;;;;;;4966177;28;20445;-85
2021/12/06 11:16:22;;;;;;;7.50;2.30;;;4.20;99.90;;;;;;4971784;28;20552;-85
2021/12/06 11:18:55;;;;;;;7.03;2.63;;;4.20;99.90;;;;;;4968504;28;20384;-85
2021/12/06 11:21:41;;;;;;;7.17;2.80;;;4.10;99.90;;;;;;4952868;29;20090;-85
2021/12/06 11:24:07;;;;;;;5.33;2.63;;;4.10;99.90;;;;;;4961549;28;20097;-85
2021/12/06 11:26:45;;;;;;;8.57;3.43;;;4.00;99.90;;;;;;4981752;28;20030;-85
2021/12/06 11:29:28;;;;;;;6.80;2.70;;;4.00;99.90;;;;;;4979017;28;20479;-85
2021/12/06 11:32:08;;;;;;;8.45;3.10;;;4.00;99.90;;;;;;4953552;29;20027;-85
2021/12/06 11:34:51;;;;;;;6.33;2.70;;;4.00;99.90;;;;;;4952824;29;20066;-85
2021/12/06 11:37:29;;;;;;;6.83;2.93;;;4.00;99.90;;;;;;4954444;28;20102;-85
2021/12/06 11:40:00;;;;;;;7.60;3.23;;;4.00;99.90;;;;;;4953399;28;20118;-84
2021/12/06 11:42:26;;;;;;;7.85;2.70;;;4.10;99.90;;;;;;4952390;29;20064;-84
2021/12/06 11:44:52;;;;;;;6.50;2.67;;;4.10;99.90;;;;;;4960792;28;20491;-84
2021/12/06 11:47:20;;;;;;;5.73;2.63;;;4.20;99.90;;;;;;4970781;28;20029;-84
2021/12/06 11:49:54;;;;;;;5.43;2.40;;;4.20;99.90;;;;;;4971383;28;20114;-85
2021/12/06 11:52:29;;;;;;;6.97;2.70;;;4.40;99.90;;;;;;4969868;28;20050;-85
2021/12/06 11:55:03;;;;;;;6.60;2.90;;;4.40;99.90;;;;;;4971170;28;20026;-85
2021/12/06 11:57:42;;;;;;;5.33;2.33;;;4.50;99.90;;;;;;4971836;28;20054;-85
2021/12/06 12:00:15;;;;;;;6.07;1.73;;;4.70;99.90;;;;;;4953779;28;20579;-84
2021/12/06 12:02:59;;;;;;;3.97;1.50;;;4.90;99.90;;;;;;4970695;28;20383;-85
2021/12/06 12:05:36;;;;;;;7.87;1.70;;;4.90;99.90;;;;;;4968581;28;20019;-85
2021/12/06 12:08:15;;;;;;;4.23;1.60;;;4.90;99.90;;;;;;4968022;28;20043;-85
2021/12/06 12:10:48;;;;;;;4.17;1.70;;;5.00;99.90;;;;;;4962426;28;20027;-85
2021/12/06 12:13:34;;;;;;;4.87;1.70;;;5.10;99.90;;;;;;4973481;28;20391;-85
2021/12/06 12:16:11;;;;;;;5.00;1.53;;;5.20;99.90;;;;;;4970889;28;20072;-85
2021/12/06 12:18:40;;;;;;;4.13;1.50;;;5.10;99.90;;;;;;4973038;28;20037;-85
2021/12/06 12:21:08;;;;;;;3.00;1.37;;;5.20;99.90;;;;;;4970246;28;20514;-84
2021/12/06 12:23:34;;;;;;;4.03;1.57;;;5.30;99.90;;;;;;4967409;28;20058;-85
2021/12/06 12:26:06;;;;;;;3.57;1.30;;;5.40;99.90;;;;;;4971624;28;20055;-85
2021/12/06 12:28:39;;;;;;;4.33;1.57;;;5.50;99.90;;;;;;4972292;28;20106;-85
2021/12/06 12:31:07;;;;;;;4.47;1.92;;;5.60;99.90;;;;;;4966824;28;20042;-85
2021/12/06 12:33:34;;;;;;;5.37;2.00;;;5.70;99.90;;;;;;4958761;28;20031;-85
2021/12/06 12:36:20;;;;;;;5.03;1.80;;;5.80;99.90;;;;;;4953100;28;20031;-85
2021/12/06 12:38:49;;;;;;;7.03;2.20;;;5.90;99.90;;;;;;4964412;28;20506;-85
2021/12/06 12:41:17;;;;;;;5.27;2.20;;;5.90;99.90;;;;;;4969297;28;20031;-85
2021/12/06 12:43:51;;;;;;;5.33;2.10;;;6.00;99.90;;;;;;4971507;28;20439;-85
2021/12/06 12:46:30;;;;;;;5.47;2.07;;;6.00;99.90;;;;;;4963656;28;20508;-85
2021/12/06 12:49:01;;;;;;;4.73;1.73;;;6.10;99.90;;;;;;4967864;28;20492;-85
2021/12/06 12:51:35;;;;;;;4.00;1.52;;;6.10;99.90;;;;;;4967450;28;20491;-85
2021/12/06 12:54:09;;;;;;;3.83;1.60;;;6.30;99.90;;;;;;4971068;28;20085;-85
2021/12/06 12:57:00;;;;;;;3.73;1.63;;;6.10;99.90;;;;;;4969182;28;20031;-86
2021/12/06 12:59:56;;;;;;;5.23;2.47;;;6.00;99.90;;;;;;4958317;28;20115;-86
2021/12/06 13:02:35;;;;;;;3.93;1.97;;;5.90;99.90;;;;;;4963109;28;20042;-86
2021/12/06 13:05:07;;;;;;;4.70;1.57;;;5.70;99.90;;;;;;4967526;28;20372;-86
2021/12/06 13:07:38;;;;;;;3.05;1.05;;;5.60;99.90;;;;;;4970516;28;20145;-85
2021/12/06 13:10:22;;;;;;;4.17;1.77;;;5.50;99.90;;;;;;4963862;28;20085;-86
2021/12/06 13:13:32;;;;;;;3.43;1.40;;;5.50;99.90;;;;;;4970492;28;20030;-86
2021/12/06 13:16:22;;;;;;;4.10;1.70;;;5.30;99.90;;;;;;4942392;28;20522;-87
2021/12/06 13:19:11;;;;;;;5.40;1.50;;;5.30;99.90;;;;;;4959678;28;20459;-86
2021/12/06 13:21:55;;;;;;;4.40;1.57;;;5.30;99.90;;;;;;4963393;28;20043;-87